Station: Mt Burnett (Cfa)  

  Atmospheric Gas Attenuation - ITU Rec 676-11   ----------------- dB/100km -----------------
Date Time Temp RH % AH g/m3 Dew Point Wind Direction Speed kph Gust kph Barometer mB Rainfall Since 9am 24GHz 47GHz 76GHz 122GHz 134GHz 241GHz
08/05 12:30 12.7 82 9.13 9.7 17 24 1013.1 0.4 20.8 27.1 42.5 111.7 107.0 368.3
08/05 12:20 12.6 80 8.85 9.2 20 26 1013.1 0.4 20.2 26.7 41.4 108.8 103.3 355.5
08/05 12:10 12.2 84 9.07 9.6 22 26 1013.1 0.4 20.7 27.1 42.5 111.8 106.8 367.8
08/05 12:00 12.4 92 10.05 11.1 19 26 1013.1 0.4 22.8 28.8 46.6 122.6 120.2 414.7
08/05 11:50 12.2 94 10.14 11.2 15 20 1013.1 0.4 23.0 29.0 47.1 123.9 121.8 420.2
08/05 11:40 11.9 96 10.17 11.3 15 24 1013.1 0.4 23.1 29.1 47.4 124.8 122.7 423.4
08/05 11:30 11.6 97 10.08 11.1 22 32 1013.1 0.4 22.9 29.1 47.2 124.2 121.9 420.5
08/05 11:20 11.5 97 10.02 11.1 17 20 1013.1 0.4 22.8 29.0 47.0 123.7 121.2 418.0
08/05 11:10 11.7 98 10.25 11.4 13 19 1013.1 0.4 23.2 29.3 47.9 126.0 124.2 428.5
08/05 11:00 11.5 98 10.12 11.2 17 20 1013.1 0.4 23.0 29.2 47.4 124.8 122.7 423.1
08/05 10:50 11.6 97 10.08 11.2 15 19 1013.1 0.4 22.9 29.1 47.2 124.2 121.9 420.5
08/05 10:40 11.9 97 10.27 11.5 17 22 1013.1 0.4 23.3 29.3 47.9 125.9 124.2 428.4
08/05 10:30 11.6 99 10.29 11.4 13 19 1013.1 0.4 23.3 29.4 48.1 126.7 125.0 431.1
08/05 10:20 11.5 99 10.23 11.3 15 19 1013.1 0.4 23.2 29.4 47.9 126.1 124.3 428.6
08/05 10:10 11.2 99 10.04 11.1 15 19 1013.1 0.4 22.8 29.1 47.3 124.4 122.0 420.7
08/05 10:00 11.1 99 9.97 11 13 19 1013.1 0.4 22.7 29.0 47.0 123.7 121.2 417.7
08/05 09:50 11 99 9.91 10.9 19 24 1013.1 0.4 22.6 29.0 46.8 123.2 120.4 415.2
08/05 09:40 11 99 9.91 10.9 17 20 1013.1 0.4 22.6 29.0 46.8 123.2 120.4 415.2
08/05 09:30 11.1 99 9.97 11 17 22 1013.1 0.2 22.7 29.0 47.0 123.7 121.2 417.7
08/05 09:20 10.9 99 9.85 10.8 17 24 1013.1 0.2 22.4 28.9 46.6 122.6 119.7 412.7
08/05 09:00 10.9 99 9.85 10.8 17 24 1013.1 10.2 22.4 28.9 46.6 122.6 119.7 412.7
08/05 08:50 10.9 99 9.85 10.7 17 22 1013.1 10.2 22.4 28.9 46.6 122.6 119.7 412.7
08/05 08:40 10.8 99 9.79 10.7 15 19 1013.1 10.2 22.3 28.8 46.4 122.1 119.0 410.3
08/05 08:30 10.6 99 9.66 10.4 15 19 1013.1 10.2 22.0 28.7 46.0 120.9 117.5 404.8
08/05 08:20 10.5 99 9.6 10.3 19 22 1013.1 10.2 21.9 28.6 45.8 120.4 116.8 402.3
08/05 08:10 10.3 99 9.48 10.1 19 22 1013.1 10.2 21.7 28.4 45.4 119.3 115.4 397.3
08/05 08:00 10.3 99 9.48 10.1 19 22 1013.1 10.2 21.7 28.4 45.4 119.3 115.4 397.3
08/05 07:50 10.3 99 9.48 10.1 17 22 1013.1 10.2 21.7 28.4 45.4 119.3 115.4 397.3
08/05 07:40 10.4 99 9.54 10.2 20 28 1013.1 10.2 21.8 28.5 45.6 119.8 116.1 399.8
08/05 07:30 10.6 99 9.66 10.4 20 32 1013.1 10 22.0 28.7 46.0 120.9 117.5 404.8
08/05 07:20 10.6 99 9.66 10.4 19 22 1013.1 9.6 22.0 28.7 46.0 120.9 117.5 404.8
08/05 07:10 10.6 99 9.66 10.4 19 24 1013.1 9.6 22.0 28.7 46.0 120.9 117.5 404.8
08/05 07:00 10.6 99 9.66 10.4 20 32 1013.1 9.4 22.0 28.7 46.0 120.9 117.5 404.8
08/05 06:50 10.6 99 9.66 10.4 20 26 1013.1 9 22.0 28.7 46.0 120.9 117.5 404.8
08/05 06:40 10.6 99 9.66 10.4 20 28 1013.1 9 22.0 28.7 46.0 120.9 117.5 404.8
08/05 06:30 10.6 99 9.66 10.4 22 26 1013.1 9 22.0 28.7 46.0 120.9 117.5 404.8
08/05 06:20 10.7 99 9.73 10.5 17 22 1013.1 8.8 22.2 28.8 46.2 121.6 118.3 407.8
08/05 06:10 10.7 99 9.73 10.5 22 33 1013.1 8.2 22.2 28.8 46.2 121.6 118.3 407.8
08/05 06:00 10.7 99 9.73 10.5 20 26 1013.1 7.6 22.2 28.8 46.2 121.6 118.3 407.8
08/05 05:50 10.7 99 9.73 10.5 15 22 1013.1 7.2 22.2 28.8 46.2 121.6 118.3 407.8
08/05 05:40 10.7 99 9.73 10.5 19 22 1013.1 7.2 22.2 28.8 46.2 121.6 118.3 407.8
08/05 05:30 10.6 99 9.66 10.4 20 22 1013.1 6.8 22.0 28.7 46.0 120.9 117.5 404.8
08/05 05:20 10.6 99 9.66 10.4 20 30 1013.1 6.6 22.0 28.7 46.0 120.9 117.5 404.8
08/05 05:10 10.6 99 9.66 10.4 19 24 1013.1 6.2 22.0 28.7 46.0 120.9 117.5 404.8
08/05 05:00 10.6 99 9.66 10.4 20 28 1013.1 6 22.0 28.7 46.0 120.9 117.5 404.8
08/05 04:50 10.5 99 9.6 10.4 19 24 1013.1 5.4 21.9 28.6 45.8 120.4 116.8 402.3
08/05 04:40 10.5 99 9.6 10.3 19 22 1013.1 5.4 21.9 28.6 45.8 120.4 116.8 402.3
08/05 04:30 10.4 99 9.54 10.3 19 20 1013.1 5 21.8 28.5 45.6 119.8 116.1 399.8
08/05 04:20 10.4 99 9.54 10.3 20 24 1013.1 5 21.8 28.5 45.6 119.8 116.1 399.8
08/05 04:10 10.4 99 9.54 10.2 19 24 1013.1 4.8 21.8 28.5 45.6 119.8 116.1 399.8
08/05 04:00 10.3 99 9.48 10.2 19 22 1013.1 4.6 21.7 28.4 45.4 119.3 115.4 397.3
08/05 03:50 10.3 99 9.48 10.1 19 24 1013.1 4.4 21.7 28.4 45.4 119.3 115.4 397.3
08/05 03:40 10.2 99 9.42 10.1 19 22 1013.1 4.2 21.5 28.4 45.2 118.7 114.7 394.8
08/05 03:30 10.2 99 9.42 10 15 24 1013.1 4.2 21.5 28.4 45.2 118.7 114.7 394.8
08/05 03:20 10.2 99 9.42 10.1 20 22 1013.1 4.2 21.5 28.4 45.2 118.7 114.7 394.8
08/05 03:10 10.2 99 9.42 10 17 22 1013.1 4.2 21.5 28.4 45.2 118.7 114.7 394.8
08/05 03:00 10.1 99 9.36 10 17 20 1013.1 4 21.4 28.3 45.0 118.2 113.9 392.4
08/05 02:50 10.1 99 9.36 10 19 24 1013.1 4 21.4 28.3 45.0 118.2 113.9 392.4
08/05 02:40 10.1 99 9.36 10 19 22 1013.1 4 21.4 28.3 45.0 118.2 113.9 392.4
08/05 02:30 10.1 99 9.36 10 19 22 1013.1 4 21.4 28.3 45.0 118.2 113.9 392.4
08/05 02:20 10.1 99 9.36 9.9 22 24 1013.1 4 21.4 28.3 45.0 118.2 113.9 392.4
08/05 02:10 10 99 9.3 9.9 20 26 1013.1 4 21.3 28.2 44.8 117.6 113.2 389.9
08/05 02:00 9.9 99 9.25 9.8 22 32 1013.1 4 21.2 28.2 44.6 117.2 112.7 387.9
08/05 01:50 9.8 99 9.19 9.7 20 24 1013.1 4 21.1 28.1 44.4 116.7 112.0 385.4
08/05 01:30 9.7 99 9.13 9.5 22 28 1013.1 4 20.9 28.0 44.2 116.1 111.3 382.9
08/05 01:20 9.6 99 9.07 9.4 19 28 1013.1 4 20.8 28.0 44.0 115.6 110.5 380.4
08/05 01:10 9.4 99 8.96 9.3 17 20 1013.1 4 20.6 27.8 43.6 114.6 109.3 375.9
08/05 01:00 9.3 99 8.9 9.2 13 15 1013.1 4 20.5 27.8 43.4 114.1 108.6 373.4
08/05 00:50 9.2 99 8.84 9.1 15 19 1013.1 4 20.3 27.7 43.2 113.5 107.8 370.9
08/05 00:40 9.1 99 8.79 9 17 22 1013.1 4 20.2 27.6 43.1 113.1 107.3 368.9
08/05 00:30 8.9 99 8.68 8.8 15 20 1013.1 4 20.0 27.5 42.7 112.1 106.0 364.4
08/05 00:20 8.9 99 8.68 8.8 13 20 1013.1 3.8 20.0 27.5 42.7 112.1 106.0 364.4
08/05 00:10 8.8 99 8.62 8.7 11 13 1013.1 3.8 19.9 27.4 42.5 111.6 105.3 361.9
08/05 00:00 8.8 99 8.62 8.7 11 19 1013.1 3.8 19.9 27.4 42.5 111.6 105.3 361.9
07/05 23:50 8.7 99 8.56 8.6 11 17 1013.1 3.8 19.8 27.4 42.3 111.0 104.6 359.4
07/05 23:40 8.6 99 8.51 8.5 11 15 1013.1 3.8 19.7 27.3 42.1 110.6 104.0 357.4
07/05 23:30 8.6 99 8.51 8.5 9 13 1013.1 3.8 19.7 27.3 42.1 110.6 104.0 357.4
07/05 23:20 8.5 99 8.46 8.4 11 17 1013.1 3.8 19.5 27.2 42.0 110.2 103.4 355.4
07/05 23:10 8.4 99 8.4 8.3 9 15 1013.1 3.8 19.4 27.2 41.8 109.6 102.7 352.8
07/05 23:00 8.4 99 8.4 8.3 11 17 1013.1 3.8 19.4 27.2 41.8 109.6 102.7 352.8
07/05 22:50 8.3 99 8.35 8.2 11 17 1013.1 3.6 19.3 27.1 41.6 109.2 102.1 350.8
07/05 22:40 8.2 99 8.29 8.1 11 17 1013.1 3.6 19.2 27.0 41.4 108.6 101.4 348.3
07/05 22:30 8.1 99 8.24 8 9 13 1013.1 3.6 19.1 27.0 41.2 108.2 100.9 346.3
07/05 22:20 8 100 8.27 8 11 13 1013.1 3.6 19.2 27.1 41.4 108.7 101.4 348.2
07/05 22:10 8 99 8.19 7.9 11 13 1013.1 3.6 19.0 26.9 41.1 107.8 100.3 344.3
07/05 22:00 8 99 8.19 7.9 11 17 1013.1 3.6 19.0 26.9 41.1 107.8 100.3 344.3
07/05 21:50 8 99 8.19 7.9 9 13 1013.1 3.6 19.0 26.9 41.1 107.8 100.3 344.3
07/05 21:40 8 99 8.19 7.9 9 15 1013.1 3.4 19.0 26.9 41.1 107.8 100.3 344.3
07/05 21:20 7.9 100 8.22 7.9 13 17 1013.1 3.4 19.1 27.0 41.2 108.3 100.8 346.2
07/05 21:10 7.9 99 8.14 7.8 9 15 1013.1 3.4 18.9 26.9 40.9 107.3 99.7 342.3
07/05 21:00 7.9 99 8.14 7.8 11 15 1013.1 3.4 18.9 26.9 40.9 107.3 99.7 342.3
07/05 20:40 7.9 100 8.22 7.9 11 15 1013.1 3 19.1 27.0 41.2 108.3 100.8 346.2
07/05 20:30 8 99 8.19 7.9 17 22 1013.1 2.8 19.0 26.9 41.1 107.8 100.3 344.3
07/05 20:20 8 99 8.19 7.9 11 15 1013.1 2.8 19.0 26.9 41.1 107.8 100.3 344.3
07/05 20:10 8 99 8.19 7.8 11 13 1013.1 2.4 19.0 26.9 41.1 107.8 100.3 344.3
07/05 20:00 7.9 99 8.14 7.7 13 19 1013.1 2 18.9 26.9 40.9 107.3 99.7 342.3
07/05 19:50 7.8 99 8.08 7.6 9 13 1013.1 2 18.8 26.8 40.7 106.8 99.0 339.7
07/05 19:40 7.8 98 8 7.5 7 11 1013.1 2 18.6 26.7 40.4 105.9 97.9 335.8
07/05 19:30 7.7 98 7.95 7.4 7 9 1013.1 2 18.5 26.6 40.2 105.5 97.3 333.8
07/05 19:20 7.7 98 7.95 7.4 7 9 1013.1 1.8 18.5 26.6 40.2 105.5 97.3 333.8

Last Refresh: 08-May-2026 12:10:20

Bureau of Meteorology